sensor_id;sensor_type;location;lat;lon;timestamp;pressure;altitude;pressure_sealevel;temperature;humidity
45071;BME280;30836;48.906;9.140;2024-03-02T00:00:21;974.81;;;16.68;44.07
45071;BME280;30836;48.906;9.140;2024-03-02T00:01:23;974.79;;;16.68;44.09
45071;BME280;30836;48.906;9.140;2024-03-02T00:02:23;974.79;;;16.69;44.12
45071;BME280;30836;48.906;9.140;2024-03-02T00:03:23;974.79;;;16.69;44.10
45071;BME280;30836;48.906;9.140;2024-03-02T00:04:24;974.79;;;16.69;44.08
45071;BME280;30836;48.906;9.140;2024-03-02T00:05:24;974.79;;;16.69;44.00
45071;BME280;30836;48.906;9.140;2024-03-02T00:06:25;974.83;;;16.69;43.99
45071;BME280;30836;48.906;9.140;2024-03-02T00:07:25;974.83;;;16.70;43.97
45071;BME280;30836;48.906;9.140;2024-03-02T00:08:26;974.81;;;16.71;43.96
45071;BME280;30836;48.906;9.140;2024-03-02T00:09:26;974.81;;;16.71;43.94
45071;BME280;30836;48.906;9.140;2024-03-02T00:10:30;974.79;;;16.71;43.85
45071;BME280;30836;48.906;9.140;2024-03-02T00:11:37;974.79;;;16.71;43.82
45071;BME280;30836;48.906;9.140;2024-03-02T00:12:38;974.81;;;16.70;43.77
45071;BME280;30836;48.906;9.140;2024-03-02T00:13:41;974.81;;;16.69;43.64
45071;BME280;30836;48.906;9.140;2024-03-02T00:14:41;974.81;;;16.68;43.68
45071;BME280;30836;48.906;9.140;2024-03-02T00:16:42;974.79;;;16.64;43.77
45071;BME280;30836;48.906;9.140;2024-03-02T00:17:43;974.81;;;16.63;43.78
45071;BME280;30836;48.906;9.140;2024-03-02T00:18:43;974.79;;;16.62;43.76
45071;BME280;30836;48.906;9.140;2024-03-02T00:19:44;974.79;;;16.60;43.74
45071;BME280;30836;48.906;9.140;2024-03-02T00:20:44;974.79;;;16.59;43.67
45071;BME280;30836;48.906;9.140;2024-03-02T00:21:45;974.81;;;16.57;43.66
45071;BME280;30836;48.906;9.140;2024-03-02T00:22:45;974.81;;;16.56;43.67
45071;BME280;30836;48.906;9.140;2024-03-02T00:23:46;974.79;;;16.54;43.72
45071;BME280;30836;48.906;9.140;2024-03-02T00:24:48;974.81;;;16.53;43.80
45071;BME280;30836;48.906;9.140;2024-03-02T00:25:50;974.83;;;16.52;43.80
45071;BME280;30836;48.906;9.140;2024-03-02T00:26:51;974.81;;;16.51;43.88
45071;BME280;30836;48.906;9.140;2024-03-02T00:27:52;974.81;;;16.49;43.92
45071;BME280;30836;48.906;9.140;2024-03-02T00:28:54;974.83;;;16.48;43.95
45071;BME280;30836;48.906;9.140;2024-03-02T00:29:55;974.83;;;16.46;43.99
45071;BME280;30836;48.906;9.140;2024-03-02T00:30:59;974.83;;;16.45;44.01
45071;BME280;30836;48.906;9.140;2024-03-02T00:32:11;974.83;;;16.44;44.03
45071;BME280;30836;48.906;9.140;2024-03-02T00:33:13;974.83;;;16.44;43.98
45071;BME280;30836;48.906;9.140;2024-03-02T00:34:14;974.85;;;16.44;44.03
45071;BME280;30836;48.906;9.140;2024-03-02T00:35:14;974.87;;;16.44;44.05
45071;BME280;30836;48.906;9.140;2024-03-02T00:36:15;974.87;;;16.44;43.99
45071;BME280;30836;48.906;9.140;2024-03-02T00:37:21;974.87;;;16.44;43.91
45071;BME280;30836;48.906;9.140;2024-03-02T00:38:21;974.85;;;16.43;43.83
45071;BME280;30836;48.906;9.140;2024-03-02T00:39:22;974.87;;;16.42;43.82
45071;BME280;30836;48.906;9.140;2024-03-02T00:40:22;974.83;;;16.40;43.71
45071;BME280;30836;48.906;9.140;2024-03-02T00:41:30;974.81;;;16.37;43.81
45071;BME280;30836;48.906;9.140;2024-03-02T00:42:31;974.81;;;16.35;43.83
45071;BME280;30836;48.906;9.140;2024-03-02T00:44:37;974.83;;;16.30;43.89
45071;BME280;30836;48.906;9.140;2024-03-02T00:45:39;974.85;;;16.28;43.92
45071;BME280;30836;48.906;9.140;2024-03-02T00:46:40;974.85;;;16.26;43.88
45071;BME280;30836;48.906;9.140;2024-03-02T00:47:42;974.89;;;16.24;43.94
45071;BME280;30836;48.906;9.140;2024-03-02T00:47:52;974.87;;;16.21;43.94
45071;BME280;30836;48.906;9.140;2024-03-02T00:48:56;974.83;;;16.21;44.01
45071;BME280;30836;48.906;9.140;2024-03-02T00:49:58;974.83;;;16.18;44.09
45071;BME280;30836;48.906;9.140;2024-03-02T00:50:58;974.83;;;16.10;44.32
45071;BME280;30836;48.906;9.140;2024-03-02T00:51:59;974.83;;;16.01;44.55
45071;BME280;30836;48.906;9.140;2024-03-02T00:52:59;974.79;;;15.94;44.67
45071;BME280;30836;48.906;9.140;2024-03-02T00:54:04;974.83;;;15.87;44.79
45071;BME280;30836;48.906;9.140;2024-03-02T00:55:05;974.83;;;15.79;45.00
45071;BME280;30836;48.906;9.140;2024-03-02T00:56:08;974.79;;;15.72;45.19
45071;BME280;30836;48.906;9.140;2024-03-02T00:57:11;974.79;;;15.67;45.23
45071;BME280;30836;48.906;9.140;2024-03-02T00:58:11;974.81;;;15.68;44.97
45071;BME280;30836;48.906;9.140;2024-03-02T00:59:11;974.77;;;15.72;44.82
45071;BME280;30836;48.906;9.140;2024-03-02T01:00:12;974.79;;;15.76;44.76
45071;BME280;30836;48.906;9.140;2024-03-02T01:01:13;974.81;;;15.80;44.68
45071;BME280;30836;48.906;9.140;2024-03-02T01:02:13;974.81;;;15.84;44.66
45071;BME280;30836;48.906;9.140;2024-03-02T01:03:14;974.79;;;15.88;44.63
45071;BME280;30836;48.906;9.140;2024-03-02T01:04:15;974.79;;;15.90;44.50
45071;BME280;30836;48.906;9.140;2024-03-02T01:05:18;974.79;;;15.92;44.41
45071;BME280;30836;48.906;9.140;2024-03-02T01:06:18;974.79;;;15.93;44.41
45071;BME280;30836;48.906;9.140;2024-03-02T01:07:19;974.81;;;15.94;44.29
45071;BME280;30836;48.906;9.140;2024-03-02T01:08:19;974.81;;;15.95;44.22
45071;BME280;30836;48.906;9.140;2024-03-02T01:09:20;974.83;;;15.95;44.15
45071;BME280;30836;48.906;9.140;2024-03-02T01:10:20;974.85;;;15.95;44.11
45071;BME280;30836;48.906;9.140;2024-03-02T01:11:21;974.87;;;15.94;44.10
45071;BME280;30836;48.906;9.140;2024-03-02T01:12:21;974.87;;;15.94;44.12
45071;BME280;30836;48.906;9.140;2024-03-02T01:13:22;974.85;;;15.94;44.01
45071;BME280;30836;48.906;9.140;2024-03-02T01:14:23;974.85;;;15.94;44.08
45071;BME280;30836;48.906;9.140;2024-03-02T01:15:23;974.83;;;15.93;44.14
45071;BME280;30836;48.906;9.140;2024-03-02T01:16:24;974.83;;;15.93;44.20
45071;BME280;30836;48.906;9.140;2024-03-02T01:17:24;974.83;;;15.92;44.21
45071;BME280;30836;48.906;9.140;2024-03-02T01:18:24;974.81;;;15.91;44.18
45071;BME280;30836;48.906;9.140;2024-03-02T01:19:25;974.81;;;15.90;44.03
45071;BME280;30836;48.906;9.140;2024-03-02T01:20:25;974.79;;;15.88;44.03
45071;BME280;30836;48.906;9.140;2024-03-02T01:21:26;974.81;;;15.87;44.01
45071;BME280;30836;48.906;9.140;2024-03-02T01:22:26;974.85;;;15.87;44.03
45071;BME280;30836;48.906;9.140;2024-03-02T01:23:27;974.83;;;15.86;44.02
45071;BME280;30836;48.906;9.140;2024-03-02T01:24:27;974.83;;;15.85;43.99
45071;BME280;30836;48.906;9.140;2024-03-02T01:25:28;974.85;;;15.85;43.91
45071;BME280;30836;48.906;9.140;2024-03-02T01:26:28;974.83;;;15.84;43.79
45071;BME280;30836;48.906;9.140;2024-03-02T01:27:29;974.77;;;15.83;43.88
45071;BME280;30836;48.906;9.140;2024-03-02T01:28:29;974.77;;;15.82;43.91
45071;BME280;30836;48.906;9.140;2024-03-02T01:29:29;974.77;;;15.80;43.86
45071;BME280;30836;48.906;9.140;2024-03-02T01:30:30;974.77;;;15.77;43.87
45071;BME280;30836;48.906;9.140;2024-03-02T01:31:30;974.77;;;15.73;43.99
45071;BME280;30836;48.906;9.140;2024-03-02T01:32:31;974.74;;;15.66;44.15
45071;BME280;30836;48.906;9.140;2024-03-02T01:33:31;974.74;;;15.61;44.23
45071;BME280;30836;48.906;9.140;2024-03-02T01:34:31;974.72;;;15.57;44.25
45071;BME280;30836;48.906;9.140;2024-03-02T01:35:32;974.70;;;15.53;44.18
45071;BME280;30836;48.906;9.140;2024-03-02T01:36:33;974.70;;;15.50;44.35
45071;BME280;30836;48.906;9.140;2024-03-02T01:37:34;974.70;;;15.46;44.41
45071;BME280;30836;48.906;9.140;2024-03-02T01:38:34;974.66;;;15.43;44.42
45071;BME280;30836;48.906;9.140;2024-03-02T01:39:35;974.66;;;15.40;44.44
45071;BME280;30836;48.906;9.140;2024-03-02T01:40:36;974.68;;;15.37;44.56
45071;BME280;30836;48.906;9.140;2024-03-02T01:41:37;974.70;;;15.36;44.51
45071;BME280;30836;48.906;9.140;2024-03-02T01:42:38;974.68;;;15.37;44.48
45071;BME280;30836;48.906;9.140;2024-03-02T01:43:39;974.68;;;15.39;44.39
45071;BME280;30836;48.906;9.140;2024-03-02T01:44:39;974.70;;;15.41;44.39
45071;BME280;30836;48.906;9.140;2024-03-02T01:45:41;974.70;;;15.42;44.35
45071;BME280;30836;48.906;9.140;2024-03-02T01:46:43;974.66;;;15.41;44.40
45071;BME280;30836;48.906;9.140;2024-03-02T01:47:43;974.68;;;15.34;44.61
45071;BME280;30836;48.906;9.140;2024-03-02T01:48:44;974.68;;;15.27;44.74
45071;BME280;30836;48.906;9.140;2024-03-02T01:49:44;974.66;;;15.19;44.76
45071;BME280;30836;48.906;9.140;2024-03-02T01:50:45;974.66;;;15.12;44.93
45071;BME280;30836;48.906;9.140;2024-03-02T01:51:46;974.66;;;15.06;44.92
45071;BME280;30836;48.906;9.140;2024-03-02T01:52:46;974.66;;;15.02;44.99
45071;BME280;30836;48.906;9.140;2024-03-02T01:53:47;974.66;;;14.97;44.96
45071;BME280;30836;48.906;9.140;2024-03-02T01:54:47;974.68;;;14.92;45.13
45071;BME280;30836;48.906;9.140;2024-03-02T01:55:47;974.68;;;14.88;45.25
45071;BME280;30836;48.906;9.140;2024-03-02T01:56:48;974.64;;;14.85;45.33
45071;BME280;30836;48.906;9.140;2024-03-02T01:57:49;974.64;;;14.83;45.39
45071;BME280;30836;48.906;9.140;2024-03-02T01:58:50;974.64;;;14.80;45.51
45071;BME280;30836;48.906;9.140;2024-03-02T01:59:50;974.64;;;14.78;45.52
45071;BME280;30836;48.906;9.140;2024-03-02T02:00:51;974.62;;;14.77;45.49
45071;BME280;30836;48.906;9.140;2024-03-02T02:01:54;974.64;;;14.76;45.48
45071;BME280;30836;48.906;9.140;2024-03-02T02:02:54;974.60;;;14.75;45.53
45071;BME280;30836;48.906;9.140;2024-03-02T02:03:55;974.64;;;14.74;45.57
45071;BME280;30836;48.906;9.140;2024-03-02T02:04:55;974.62;;;14.75;45.52
45071;BME280;30836;48.906;9.140;2024-03-02T02:05:56;974.62;;;14.76;45.46
45071;BME280;30836;48.906;9.140;2024-03-02T02:06:56;974.62;;;14.76;45.43
45071;BME280;30836;48.906;9.140;2024-03-02T02:07:57;974.62;;;14.77;45.41
45071;BME280;30836;48.906;9.140;2024-03-02T02:08:57;974.62;;;14.83;45.15
45071;BME280;30836;48.906;9.140;2024-03-02T02:09:58;974.60;;;14.92;44.78
45071;BME280;30836;48.906;9.140;2024-03-02T02:10:58;974.56;;;15.00;44.67
45071;BME280;30836;48.906;9.140;2024-03-02T02:11:59;974.52;;;15.08;44.50
45071;BME280;30836;48.906;9.140;2024-03-02T02:12:59;974.52;;;15.15;44.32
45071;BME280;30836;48.906;9.140;2024-03-02T02:14:00;974.46;;;15.21;44.18
45071;BME280;30836;48.906;9.140;2024-03-02T02:15:00;974.48;;;15.27;44.09
45071;BME280;30836;48.906;9.140;2024-03-02T02:17:07;974.48;;;15.32;43.94
45071;BME280;30836;48.906;9.140;2024-03-02T02:18:07;974.46;;;15.33;43.87
45071;BME280;30836;48.906;9.140;2024-03-02T02:19:08;974.46;;;15.34;43.84
45071;BME280;30836;48.906;9.140;2024-03-02T02:20:08;974.44;;;15.35;43.85
45071;BME280;30836;48.906;9.140;2024-03-02T02:21:09;974.46;;;15.36;43.87
45071;BME280;30836;48.906;9.140;2024-03-02T02:22:10;974.46;;;15.37;43.85
45071;BME280;30836;48.906;9.140;2024-03-02T02:23:11;974.46;;;15.37;43.88
45071;BME280;30836;48.906;9.140;2024-03-02T02:24:11;974.50;;;15.38;43.83
45071;BME280;30836;48.906;9.140;2024-03-02T02:25:11;974.52;;;15.38;43.81
45071;BME280;30836;48.906;9.140;2024-03-02T02:26:12;974.54;;;15.36;43.89
45071;BME280;30836;48.906;9.140;2024-03-02T02:27:12;974.54;;;15.32;43.90
45071;BME280;30836;48.906;9.140;2024-03-02T02:28:13;974.56;;;15.27;44.06
45071;BME280;30836;48.906;9.140;2024-03-02T02:29:13;974.56;;;15.21;44.28
45071;BME280;30836;48.906;9.140;2024-03-02T02:30:14;974.56;;;15.17;44.33
45071;BME280;30836;48.906;9.140;2024-03-02T02:31:19;974.54;;;15.15;44.33
45071;BME280;30836;48.906;9.140;2024-03-02T02:32:19;974.54;;;15.14;44.24
45071;BME280;30836;48.906;9.140;2024-03-02T02:33:19;974.52;;;15.14;44.36
45071;BME280;30836;48.906;9.140;2024-03-02T02:34:20;974.52;;;15.14;44.30
45071;BME280;30836;48.906;9.140;2024-03-02T02:35:20;974.52;;;15.15;44.31
45071;BME280;30836;48.906;9.140;2024-03-02T02:36:21;974.50;;;15.16;44.31
45071;BME280;30836;48.906;9.140;2024-03-02T02:37:21;974.46;;;15.17;44.14
45071;BME280;30836;48.906;9.140;2024-03-02T02:38:22;974.44;;;15.18;44.09
45071;BME280;30836;48.906;9.140;2024-03-02T02:39:22;974.42;;;15.20;44.02
45071;BME280;30836;48.906;9.140;2024-03-02T02:40:23;974.40;;;15.19;43.77
45071;BME280;30836;48.906;9.140;2024-03-02T02:41:23;974.32;;;15.18;43.79
45071;BME280;30836;48.906;9.140;2024-03-02T02:42:24;974.30;;;15.17;43.81
45071;BME280;30836;48.906;9.140;2024-03-02T02:43:24;974.32;;;15.16;43.79
45071;BME280;30836;48.906;9.140;2024-03-02T02:44:24;974.30;;;15.15;43.75
45071;BME280;30836;48.906;9.140;2024-03-02T02:45:25;974.32;;;15.14;43.79
45071;BME280;30836;48.906;9.140;2024-03-02T02:46:25;974.28;;;15.14;43.79
45071;BME280;30836;48.906;9.140;2024-03-02T02:47:26;974.24;;;15.14;43.84
45071;BME280;30836;48.906;9.140;2024-03-02T02:48:26;974.22;;;15.14;43.85
45071;BME280;30836;48.906;9.140;2024-03-02T02:49:27;974.22;;;15.13;43.83
45071;BME280;30836;48.906;9.140;2024-03-02T02:50:27;974.20;;;15.10;43.91
45071;BME280;30836;48.906;9.140;2024-03-02T02:51:27;974.20;;;15.10;43.84
45071;BME280;30836;48.906;9.140;2024-03-02T02:52:31;974.18;;;15.09;43.90
45071;BME280;30836;48.906;9.140;2024-03-02T02:53:32;974.20;;;15.08;43.88
45071;BME280;30836;48.906;9.140;2024-03-02T02:54:33;974.20;;;15.08;43.85
45071;BME280;30836;48.906;9.140;2024-03-02T02:55:33;974.20;;;15.08;43.86
45071;BME280;30836;48.906;9.140;2024-03-02T02:56:33;974.20;;;15.08;43.92
45071;BME280;30836;48.906;9.140;2024-03-02T02:57:34;974.22;;;15.09;43.90
45071;BME280;30836;48.906;9.140;2024-03-02T02:58:35;974.26;;;15.09;43.97
45071;BME280;30836;48.906;9.140;2024-03-02T02:59:35;974.24;;;15.09;43.99
45071;BME280;30836;48.906;9.140;2024-03-02T03:00:36;974.24;;;15.09;43.99
45071;BME280;30836;48.906;9.140;2024-03-02T03:01:36;974.24;;;15.09;43.98
45071;BME280;30836;48.906;9.140;2024-03-02T03:02:37;974.28;;;15.09;43.96
45071;BME280;30836;48.906;9.140;2024-03-02T03:03:38;974.30;;;15.08;43.99
45071;BME280;30836;48.906;9.140;2024-03-02T03:04:39;974.30;;;15.08;43.98
45071;BME280;30836;48.906;9.140;2024-03-02T03:05:40;974.32;;;15.07;43.94
45071;BME280;30836;48.906;9.140;2024-03-02T03:06:40;974.26;;;15.03;44.03
45071;BME280;30836;48.906;9.140;2024-03-02T03:07:41;974.26;;;15.01;43.99
45071;BME280;30836;48.906;9.140;2024-03-02T03:08:42;974.26;;;15.01;43.83
45071;BME280;30836;48.906;9.140;2024-03-02T03:09:42;974.26;;;15.00;43.83
45071;BME280;30836;48.906;9.140;2024-03-02T03:10:42;974.24;;;14.99;43.78
45071;BME280;30836;48.906;9.140;2024-03-02T03:11:43;974.24;;;14.97;43.81
45071;BME280;30836;48.906;9.140;2024-03-02T03:12:43;974.24;;;14.95;43.86
45071;BME280;30836;48.906;9.140;2024-03-02T03:13:44;974.26;;;14.92;43.94
45071;BME280;30836;48.906;9.140;2024-03-02T03:14:44;974.26;;;14.90;43.95
45071;BME280;30836;48.906;9.140;2024-03-02T03:15:45;974.24;;;14.88;43.95
45071;BME280;30836;48.906;9.140;2024-03-02T03:16:46;974.24;;;14.85;43.97
45071;BME280;30836;48.906;9.140;2024-03-02T03:17:46;974.26;;;14.80;44.09
45071;BME280;30836;48.906;9.140;2024-03-02T03:18:47;974.28;;;14.75;44.21
45071;BME280;30836;48.906;9.140;2024-03-02T03:19:47;974.30;;;14.71;44.30
45071;BME280;30836;48.906;9.140;2024-03-02T03:20:47;974.30;;;14.67;44.40
45071;BME280;30836;48.906;9.140;2024-03-02T03:21:48;974.30;;;14.64;44.52
45071;BME280;30836;48.906;9.140;2024-03-02T03:22:48;974.28;;;14.62;44.60
45071;BME280;30836;48.906;9.140;2024-03-02T03:23:49;974.28;;;14.58;44.64
45071;BME280;30836;48.906;9.140;2024-03-02T03:24:49;974.28;;;14.53;44.90
45071;BME280;30836;48.906;9.140;2024-03-02T03:25:50;974.24;;;14.46;45.10
45071;BME280;30836;48.906;9.140;2024-03-02T03:26:50;974.24;;;14.38;45.27
45071;BME280;30836;48.906;9.140;2024-03-02T03:27:50;974.28;;;14.31;45.33
45071;BME280;30836;48.906;9.140;2024-03-02T03:28:51;974.26;;;14.24;45.48
45071;BME280;30836;48.906;9.140;2024-03-02T03:29:51;974.30;;;14.18;45.60
45071;BME280;30836;48.906;9.140;2024-03-02T03:30:52;974.32;;;14.13;45.67
45071;BME280;30836;48.906;9.140;2024-03-02T03:31:52;974.40;;;14.11;45.63
45071;BME280;30836;48.906;9.140;2024-03-02T03:32:53;974.42;;;14.12;45.39
45071;BME280;30836;48.906;9.140;2024-03-02T03:33:53;974.40;;;14.14;45.35
45071;BME280;30836;48.906;9.140;2024-03-02T03:34:53;974.30;;;14.16;45.37
45071;BME280;30836;48.906;9.140;2024-03-02T03:35:54;974.30;;;14.17;45.28
45071;BME280;30836;48.906;9.140;2024-03-02T03:36:54;974.30;;;14.19;45.28
45071;BME280;30836;48.906;9.140;2024-03-02T03:37:55;974.40;;;14.21;45.24
45071;BME280;30836;48.906;9.140;2024-03-02T03:38:55;974.32;;;14.24;45.27
45071;BME280;30836;48.906;9.140;2024-03-02T03:39:56;974.30;;;14.25;45.27
45071;BME280;30836;48.906;9.140;2024-03-02T03:40:56;974.30;;;14.25;45.30
45071;BME280;30836;48.906;9.140;2024-03-02T03:41:56;974.28;;;14.22;45.38
45071;BME280;30836;48.906;9.140;2024-03-02T03:42:57;974.26;;;14.18;45.50
45071;BME280;30836;48.906;9.140;2024-03-02T03:43:57;974.28;;;14.12;45.61
45071;BME280;30836;48.906;9.140;2024-03-02T03:44:58;974.24;;;14.05;45.71
45071;BME280;30836;48.906;9.140;2024-03-02T03:45:58;974.24;;;14.00;45.79
45071;BME280;30836;48.906;9.140;2024-03-02T03:46:59;974.22;;;13.96;45.85
45071;BME280;30836;48.906;9.140;2024-03-02T03:47:59;974.22;;;13.91;45.93
45071;BME280;30836;48.906;9.140;2024-03-02T03:48:59;974.20;;;13.87;46.04
45071;BME280;30836;48.906;9.140;2024-03-02T03:50:00;974.22;;;13.82;46.08
45071;BME280;30836;48.906;9.140;2024-03-02T03:51:00;974.18;;;13.78;46.21
45071;BME280;30836;48.906;9.140;2024-03-02T03:52:01;974.20;;;13.73;46.28
45071;BME280;30836;48.906;9.140;2024-03-02T03:53:01;974.18;;;13.71;46.28
45071;BME280;30836;48.906;9.140;2024-03-02T03:54:02;974.20;;;13.69;46.25
45071;BME280;30836;48.906;9.140;2024-03-02T03:55:02;974.20;;;13.69;46.20
45071;BME280;30836;48.906;9.140;2024-03-02T03:56:03;974.20;;;13.71;46.06
45071;BME280;30836;48.906;9.140;2024-03-02T03:57:04;974.22;;;13.76;45.94
45071;BME280;30836;48.906;9.140;2024-03-02T03:58:04;974.24;;;13.81;45.92
45071;BME280;30836;48.906;9.140;2024-03-02T03:59:05;974.22;;;13.86;45.84
45071;BME280;30836;48.906;9.140;2024-03-02T04:00:05;974.22;;;13.89;45.82
45071;BME280;30836;48.906;9.140;2024-03-02T04:01:06;974.20;;;13.89;45.96
45071;BME280;30836;48.906;9.140;2024-03-02T04:02:07;974.20;;;13.86;46.27
45071;BME280;30836;48.906;9.140;2024-03-02T04:03:07;974.22;;;13.84;46.21
45071;BME280;30836;48.906;9.140;2024-03-02T04:04:08;974.24;;;13.86;46.00
45071;BME280;30836;48.906;9.140;2024-03-02T04:05:08;974.26;;;13.86;46.08
45071;BME280;30836;48.906;9.140;2024-03-02T04:06:09;974.24;;;13.87;46.08
45071;BME280;30836;48.906;9.140;2024-03-02T04:07:09;974.24;;;13.91;46.06
45071;BME280;30836;48.906;9.140;2024-03-02T04:08:10;974.26;;;13.94;45.96
45071;BME280;30836;48.906;9.140;2024-03-02T04:09:10;974.24;;;13.94;46.09
45071;BME280;30836;48.906;9.140;2024-03-02T04:10:10;974.24;;;13.93;46.12
45071;BME280;30836;48.906;9.140;2024-03-02T04:11:11;974.24;;;13.92;45.99
45071;BME280;30836;48.906;9.140;2024-03-02T04:12:11;974.24;;;13.91;46.02
45071;BME280;30836;48.906;9.140;2024-03-02T04:13:12;974.24;;;13.87;46.16
45071;BME280;30836;48.906;9.140;2024-03-02T04:14:12;974.26;;;13.84;46.18
45071;BME280;30836;48.906;9.140;2024-03-02T04:15:13;974.24;;;13.80;46.25
45071;BME280;30836;48.906;9.140;2024-03-02T04:16:13;974.26;;;13.75;46.42
45071;BME280;30836;48.906;9.140;2024-03-02T04:17:14;974.22;;;13.69;46.60
45071;BME280;30836;48.906;9.140;2024-03-02T04:18:14;974.24;;;13.64;46.65
45071;BME280;30836;48.906;9.140;2024-03-02T04:19:14;974.26;;;13.62;46.62
45071;BME280;30836;48.906;9.140;2024-03-02T04:20:15;974.26;;;13.61;46.54
45071;BME280;30836;48.906;9.140;2024-03-02T04:21:15;974.30;;;13.62;46.44
45071;BME280;30836;48.906;9.140;2024-03-02T04:22:16;974.28;;;13.62;46.35
45071;BME280;30836;48.906;9.140;2024-03-02T04:23:16;974.26;;;13.60;46.71
45071;BME280;30836;48.906;9.140;2024-03-02T04:24:17;974.26;;;13.55;46.86
45071;BME280;30836;48.906;9.140;2024-03-02T04:25:17;974.24;;;13.53;46.83
45071;BME280;30836;48.906;9.140;2024-03-02T04:26:18;974.24;;;13.51;46.91
45071;BME280;30836;48.906;9.140;2024-03-02T04:27:18;974.20;;;13.50;46.98
45071;BME280;30836;48.906;9.140;2024-03-02T04:28:19;974.22;;;13.48;47.18
45071;BME280;30836;48.906;9.140;2024-03-02T04:29:19;974.22;;;13.44;47.14
45071;BME280;30836;48.906;9.140;2024-03-02T04:30:20;974.20;;;13.42;47.26
45071;BME280;30836;48.906;9.140;2024-03-02T04:31:20;974.16;;;13.40;47.32
45071;BME280;30836;48.906;9.140;2024-03-02T04:32:21;974.16;;;13.38;47.33
45071;BME280;30836;48.906;9.140;2024-03-02T04:33:21;974.16;;;13.37;47.35
45071;BME280;30836;48.906;9.140;2024-03-02T04:34:22;974.22;;;13.40;47.26
45071;BME280;30836;48.906;9.140;2024-03-02T04:35:22;974.22;;;13.46;47.17
45071;BME280;30836;48.906;9.140;2024-03-02T04:36:23;974.26;;;13.52;47.14
45071;BME280;30836;48.906;9.140;2024-03-02T04:37:23;974.28;;;13.57;47.08
45071;BME280;30836;48.906;9.140;2024-03-02T04:38:23;974.28;;;13.61;46.98
45071;BME280;30836;48.906;9.140;2024-03-02T04:39:24;974.32;;;13.65;46.94
45071;BME280;30836;48.906;9.140;2024-03-02T04:40:24;974.32;;;13.68;46.90
45071;BME280;30836;48.906;9.140;2024-03-02T04:41:25;974.32;;;13.72;46.86
45071;BME280;30836;48.906;9.140;2024-03-02T04:42:25;974.40;;;13.75;46.78
45071;BME280;30836;48.906;9.140;2024-03-02T04:43:26;974.42;;;13.79;46.64
45071;BME280;30836;48.906;9.140;2024-03-02T04:44:26;974.42;;;13.81;46.52
45071;BME280;30836;48.906;9.140;2024-03-02T04:45:26;974.40;;;13.82;46.49
45071;BME280;30836;48.906;9.140;2024-03-02T04:46:27;974.32;;;13.83;46.34
45071;BME280;30836;48.906;9.140;2024-03-02T04:47:27;974.32;;;13.84;46.35
45071;BME280;30836;48.906;9.140;2024-03-02T04:48:28;974.32;;;13.83;46.32
45071;BME280;30836;48.906;9.140;2024-03-02T04:49:28;974.30;;;13.82;46.32
45071;BME280;30836;48.906;9.140;2024-03-02T04:50:28;974.28;;;13.80;46.18
45071;BME280;30836;48.906;9.140;2024-03-02T04:51:29;974.28;;;13.74;46.59
45071;BME280;30836;48.906;9.140;2024-03-02T04:52:29;974.26;;;13.67;46.71
45071;BME280;30836;48.906;9.140;2024-03-02T04:53:30;974.26;;;13.62;46.76
45071;BME280;30836;48.906;9.140;2024-03-02T04:54:33;974.28;;;13.57;46.79
45071;BME280;30836;48.906;9.140;2024-03-02T04:55:33;974.30;;;13.53;46.91
45071;BME280;30836;48.906;9.140;2024-03-02T04:56:34;974.30;;;13.47;47.15
45071;BME280;30836;48.906;9.140;2024-03-02T04:57:34;974.28;;;13.41;47.24
45071;BME280;30836;48.906;9.140;2024-03-02T04:58:34;974.30;;;13.38;47.26
45071;BME280;30836;48.906;9.140;2024-03-02T04:59:35;974.30;;;13.36;47.31
45071;BME280;30836;48.906;9.140;2024-03-02T05:00:35;974.32;;;13.35;47.38
45071;BME280;30836;48.906;9.140;2024-03-02T05:01:36;974.30;;;13.35;47.38
45071;BME280;30836;48.906;9.140;2024-03-02T05:02:36;974.32;;;13.36;47.37
45071;BME280;30836;48.906;9.140;2024-03-02T05:03:37;974.32;;;13.35;47.46
45071;BME280;30836;48.906;9.140;2024-03-02T05:04:37;974.32;;;13.32;47.59
45071;BME280;30836;48.906;9.140;2024-03-02T05:05:38;974.32;;;13.30;47.53
45071;BME280;30836;48.906;9.140;2024-03-02T05:06:39;974.32;;;13.27;47.60
45071;BME280;30836;48.906;9.140;2024-03-02T05:07:40;974.32;;;13.22;47.68
45071;BME280;30836;48.906;9.140;2024-03-02T05:08:40;974.30;;;13.22;47.73
45071;BME280;30836;48.906;9.140;2024-03-02T05:09:41;974.32;;;13.23;47.69
45071;BME280;30836;48.906;9.140;2024-03-02T05:10:41;974.32;;;13.26;47.67
45071;BME280;30836;48.906;9.140;2024-03-02T05:11:41;974.30;;;13.26;47.70
45071;BME280;30836;48.906;9.140;2024-03-02T05:12:42;974.32;;;13.21;48.00
45071;BME280;30836;48.906;9.140;2024-03-02T05:13:42;974.30;;;13.14;48.22
45071;BME280;30836;48.906;9.140;2024-03-02T05:14:43;974.30;;;13.12;48.22
45071;BME280;30836;48.906;9.140;2024-03-02T05:15:43;974.28;;;13.12;48.13
45071;BME280;30836;48.906;9.140;2024-03-02T05:16:44;974.32;;;13.14;48.04
45071;BME280;30836;48.906;9.140;2024-03-02T05:17:44;974.32;;;13.17;48.00
45071;BME280;30836;48.906;9.140;2024-03-02T05:18:45;974.30;;;13.19;47.88
45071;BME280;30836;48.906;9.140;2024-03-02T05:19:45;974.32;;;13.20;47.87
45071;BME280;30836;48.906;9.140;2024-03-02T05:20:45;974.32;;;13.20;47.83
45071;BME280;30836;48.906;9.140;2024-03-02T05:21:46;974.32;;;13.22;47.75
45071;BME280;30836;48.906;9.140;2024-03-02T05:22:46;974.32;;;13.24;47.65
45071;BME280;30836;48.906;9.140;2024-03-02T05:23:47;974.32;;;13.26;47.62
45071;BME280;30836;48.906;9.140;2024-03-02T05:24:47;974.40;;;13.27;47.64
45071;BME280;30836;48.906;9.140;2024-03-02T05:25:48;974.44;;;13.28;47.52
45071;BME280;30836;48.906;9.140;2024-03-02T05:26:48;974.42;;;13.28;47.56
45071;BME280;30836;48.906;9.140;2024-03-02T05:27:48;974.42;;;13.30;47.58
45071;BME280;30836;48.906;9.140;2024-03-02T05:28:49;974.44;;;13.32;47.53
45071;BME280;30836;48.906;9.140;2024-03-02T05:29:49;974.46;;;13.35;47.36
45071;BME280;30836;48.906;9.140;2024-03-02T05:30:50;974.44;;;13.38;47.30
45071;BME280;30836;48.906;9.140;2024-03-02T05:31:50;974.46;;;13.39;47.30
45071;BME280;30836;48.906;9.140;2024-03-02T05:32:51;974.48;;;13.38;47.31